Port Royal, Jamaica
Current Conditions -  °F | °C
As of 10:00 AM on Wednesday 22 Oct 2014 (Local Time) from MKJP Reporting Station
Few Clouds Few Clouds  
Wind Chill: 88°   Ceiling: Unl
Heat Index: 100°   Visibility: 6mi
Dew Point: 77°   Wind: 17mph
Humidity: 70%   Direction: 130°SE
Pressure: 29.91"   Gusts: NA
Location:  17.93°N, 76.84°W
Report Text: MKJP 221500Z 13015KT 9999 FEW022 FEW024CB 31/25 Q1013
Loading
Personal Weather Stations






























Interactive Weather Map
Tropical Storm Tracking
New forecast layout! Learn more

10-Day Weather Forecast

Advertisements
Track Severe Weather on mobile